Highland, MI (48356)

4:36 PM EST on February 01, 2015 (GMT -0500)
Axford Acres | Change Station
CLOSE
Current Station
Personal Weather Station
Location: Highland, MI
Elevation: 1038 ft
Nearby Weather Stations

Elev 1038 ft 42.67 °N, 83.59 °W | Updated 3 minutes ago

Snow
Snow
17.1 °F
Feels Like 5 °F
N
10.0
Wind Variable Wind from NNE

Today
High -- | Low -- °F
--% Chance of Precip.
Yesterday
High -- | Low -- °F
Precip. -- in
7:48 AM 5:47 PM
Waxing Gibbous, 96% visible
Pressure 29.85 in
Visibility 0.5 miles
Clouds Overcast 500 ft
Windchill 5 °F
Dew Point 14 °F
Humidity 87%
Rainfall 0.00 in
Snow Depth Not available.
UV 0 out of 12
Pollen .10 out of 12
Air Quality Not available.
Flu Activity Not available.
SPECI KPTK 012124Z 05011G22KT 1/2SM R09R/2600V3000FT SN BLSN FEW000 OVC005 M08/M10 A2985 RMK AO2 SN FEW000 DRSN P0000 T10781100

More Conditions Fewer Conditions

Pressure 29.85 in
Visibility 0.5 miles
Clouds Overcast 500 ft
Windchill 5 °F
Dew Point 14 °F
Humidity 87%
Rainfall 0.00 in
Snow Depth Not available.
UV 0 out of 12
Pollen .10 out of 12
Air Quality Not available.
Flu Activity Not available.
SPECI KPTK 012124Z 05011G22KT 1/2SM R09R/2600V3000FT SN BLSN FEW000 OVC005 M08/M10 A2985 RMK AO2 SN FEW000 DRSN P0000 T10781100

More Conditions Fewer Conditions

10-Day Weather Forecast

Almanac

Astronomy

Feb. 01, 2015 Rise Set
Actual Time
Civil Twilight
Nautical Twilight
Astronomical Twilight
Moon
Length of Visible Light
Length of Day
Tomorrow will be .
, % of the Moon is Illuminated

Today's Extremes

State Highs State Lows

Community

WunderPhotos

Upload Photos

1,792,553 photos uploaded!

WunderBlogs® & News

Nearby

Air Quality

  Air Quality AQ Index Pollutant
Not available.

Snow Depth

Station Depth Elevation

Earthquake Activity

City Distance Mag. Time & Date
Minimum magnitude displayed is 2.5.

Coastal Water Temperatures

Place Temperature

Nearby Weather Stations